Time;durP1;ratioP1;P1;durP2;ratioP2;P2;SDS_P1;SDS_P2;PMS_P1;PMS_P2;Temp;Humidity;BMP_temperature;BMP_pressure;BME280_temperature;BME280_humidity;BME280_pressure;Samples;Min_cycle;Max_cycle;Signal;HPM_P1;HPM_P2
2024/04/07 00:00:20;;;;;;;3.63;1.00;;;;;;;10.09;100.00;97912.84;6228263;28;20220;-55
2024/04/07 00:03:22;;;;;;;2.80;1.83;;;;;;;9.85;100.00;97909.38;6237177;28;20198;-57
2024/04/07 00:06:27;;;;;;;2.10;1.40;;;;;;;9.62;100.00;97909.38;6232834;28;20672;-56
2024/04/07 00:09:29;;;;;;;1.83;1.53;;;;;;;9.79;100.00;97897.00;6211342;28;20900;-57
2024/04/07 00:12:31;;;;;;;9.53;5.37;;;;;;;10.11;100.00;97915.28;6231600;28;20196;-57
2024/04/07 00:15:32;;;;;;;1.40;1.30;;;;;;;9.70;100.00;97915.13;6228307;28;20276;-57
2024/04/07 00:18:34;;;;;;;1.83;1.40;;;;;;;9.49;100.00;97905.88;6235731;28;20247;-55
2024/04/07 00:21:35;;;;;;;1.63;1.40;;;;;;;9.73;100.00;97904.06;6255784;28;20196;-54
2024/04/07 00:24:37;;;;;;;6.37;4.07;;;;;;;9.83;100.00;97912.25;6239071;28;20213;-57
2024/04/07 00:27:39;;;;;;;13.27;9.50;;;;;;;9.69;100.00;97912.72;6224937;28;20197;-52
2024/04/07 00:30:42;;;;;;;4.00;1.70;;;;;;;9.43;100.00;97908.66;6234078;28;20663;-56
2024/04/07 00:33:43;;;;;;;2.50;1.30;;;;;;;9.36;100.00;97916.75;6230193;28;20216;-54
2024/04/07 00:36:44;;;;;;;2.27;1.50;;;;;;;9.49;100.00;97907.72;6243494;28;20201;-56
2024/04/07 00:39:45;;;;;;;5.53;1.43;;;;;;;9.67;100.00;97885.56;6241774;28;20210;-57
2024/04/07 00:42:48;;;;;;;1.67;1.40;;;;;;;9.90;100.00;97911.34;6239766;28;20620;-53
2024/04/07 00:45:49;;;;;;;2.97;1.50;;;;;;;9.54;100.00;97913.16;6235937;28;20664;-55
2024/04/07 00:48:50;;;;;;;2.57;1.40;;;;;;;9.22;100.00;97894.84;6234211;28;20731;-57
2024/04/07 00:51:52;;;;;;;4.57;1.23;;;;;;;9.40;100.00;97922.38;6234775;28;20605;-56
2024/04/07 00:54:53;;;;;;;2.60;1.57;;;;;;;9.46;100.00;97911.66;6235658;28;20254;-56
2024/04/07 00:57:54;;;;;;;2.07;1.43;;;;;;;9.57;100.00;97918.84;6241569;28;20214;-55
2024/04/07 01:00:56;;;;;;;4.70;1.77;;;;;;;9.45;100.00;97901.25;6238989;28;20206;-57
2024/04/07 01:03:57;;;;;;;3.53;1.20;;;;;;;9.37;100.00;97913.03;6239667;28;20607;-57
2024/04/07 01:06:58;;;;;;;1.60;1.33;;;;;;;9.26;100.00;97911.13;6239819;28;20243;-57
2024/04/07 01:10:00;;;;;;;2.50;1.30;;;;;;;9.69;100.00;97916.19;6242348;28;20687;-55
2024/04/07 01:13:06;;;;;;;2.47;1.30;;;;;;;9.36;100.00;97911.41;6244095;28;20216;-57
2024/04/07 01:16:09;;;;;;;2.50;1.30;;;;;;;9.21;100.00;97911.00;6240864;28;20213;-57
2024/04/07 01:19:13;;;;;;;1.97;1.40;;;;;;;9.14;100.00;97910.31;6236354;28;20229;-57
2024/04/07 01:22:14;;;;;;;1.50;1.20;;;;;;;9.22;100.00;97913.47;6244696;28;20189;-53
2024/04/07 01:25:17;;;;;;;3.10;1.30;;;;;;;9.54;100.00;97903.34;6236909;28;20199;-56
2024/04/07 01:28:21;;;;;;;1.53;1.07;;;;;;;9.27;100.00;97896.81;6240216;28;20271;-56
2024/04/07 01:31:22;;;;;;;5.20;1.60;;;;;;;9.12;100.00;97907.06;6239838;28;20237;-56
2024/04/07 01:34:27;;;;;;;3.03;1.70;;;;;;;8.98;100.00;97879.88;6220944;28;20228;-55
2024/04/07 01:37:28;;;;;;;3.50;2.00;;;;;;;9.13;100.00;97900.72;6238016;28;20660;-56
2024/04/07 01:40:30;;;;;;;2.73;2.23;;;;;;;9.58;100.00;97906.34;6230027;28;20843;-51
2024/04/07 01:43:31;;;;;;;2.43;1.67;;;;;;;9.37;100.00;97888.28;6241696;28;20270;-56
2024/04/07 01:46:33;;;;;;;3.97;1.67;;;;;;;9.13;100.00;97901.53;6237713;28;20192;-55
2024/04/07 01:49:34;;;;;;;3.67;1.70;;;;;;;9.09;100.00;97904.84;6241204;28;20195;-54
2024/04/07 01:52:36;;;;;;;2.70;1.67;;;;;;;8.95;100.00;97889.09;6226867;28;20676;-55
2024/04/07 01:55:37;;;;;;;3.00;1.80;;;;;;;9.02;100.00;97892.50;6244460;28;20213;-55
2024/04/07 01:58:39;;;;;;;3.43;1.50;;;;;;;8.97;100.00;97887.03;6222691;28;20219;-55
2024/04/07 02:01:43;;;;;;;4.23;1.60;;;;;;;9.01;100.00;97893.53;6225677;28;20201;-57
2024/04/07 02:04:44;;;;;;;1.90;1.40;;;;;;;9.24;100.00;97884.78;6237473;28;20193;-56
2024/04/07 02:07:45;;;;;;;2.13;1.50;;;;;;;9.34;100.00;97889.53;6240397;28;20327;-53
2024/04/07 02:10:51;;;;;;;1.73;1.47;;;;;;;9.00;100.00;97888.41;6236793;28;20738;-56
2024/04/07 02:13:52;;;;;;;10.27;1.67;;;;;;;9.20;100.00;97894.25;6224903;28;20225;-56
2024/04/07 02:16:54;;;;;;;2.80;1.70;;;;;;;9.18;100.00;97885.72;6238561;28;20191;-57
2024/04/07 02:19:57;;;;;;;2.07;1.50;;;;;;;9.42;100.00;97888.41;6236572;28;20239;-52
2024/04/07 02:22:59;;;;;;;2.50;1.27;;;;;;;9.34;100.00;97894.88;6229387;28;20196;-55
2024/04/07 02:26:01;;;;;;;2.47;1.30;;;;;;;8.99;100.00;97894.78;6231786;28;20193;-54
2024/04/07 02:29:03;;;;;;;4.23;1.50;;;;;;;8.93;100.00;97877.09;6239382;28;20662;-57
2024/04/07 02:32:06;;;;;;;1.10;1.00;;;;;;;9.26;100.00;97874.75;6229147;28;20194;-55
2024/04/07 02:35:07;;;;;;;1.20;1.10;;;;;;;9.09;100.00;97887.06;6223395;28;20200;-55
2024/04/07 02:38:10;;;;;;;1.60;1.20;;;;;;;8.85;100.00;97885.38;6228079;28;20192;-55
2024/04/07 02:41:11;;;;;;;1.80;1.30;;;;;;;8.81;100.00;97890.31;6223776;28;20287;-53
2024/04/07 02:44:12;;;;;;;1.83;1.17;;;;;;;8.80;100.00;97896.66;6240169;28;20192;-52
2024/04/07 02:50:34;;;;;;;2.53;1.30;;;;;;;8.63;100.00;97877.91;6238072;28;20190;-56
2024/04/07 02:53:36;;;;;;;1.90;1.00;;;;;;;8.76;100.00;97901.59;6236136;28;20193;-53
2024/04/07 02:56:38;;;;;;;1.03;1.00;;;;;;;8.78;100.00;97904.06;6228999;28;20197;-55
2024/04/07 02:59:41;;;;;;;1.30;1.20;;;;;;;8.76;100.00;97903.47;6225859;28;20198;-56
2024/04/07 03:02:44;;;;;;;2.87;1.07;;;;;;;8.28;100.00;97837.88;6235306;28;20631;-56
2024/04/07 03:05:45;;;;;;;2.77;1.13;;;;;;;8.79;100.00;97909.13;6238623;28;20191;-57
2024/04/07 03:08:46;;;;;;;1.20;1.00;;;;;;;8.67;100.00;97904.78;6240051;28;20197;-55
2024/04/07 03:11:49;;;;;;;1.67;1.20;;;;;;;8.65;100.00;97914.84;6224475;28;20195;-56
2024/04/07 03:14:54;;;;;;;1.30;1.10;;;;;;;8.67;100.00;97912.75;6234214;28;20232;-53
2024/04/07 03:17:55;;;;;;;2.83;1.30;;;;;;;8.57;100.00;97905.34;6230120;28;20547;-56
2024/04/07 03:20:56;;;;;;;2.00;1.10;;;;;;;8.77;100.00;97894.47;6235549;28;20601;-54
2024/04/07 03:23:58;;;;;;;2.40;1.10;;;;;;;8.59;100.00;97897.16;6242407;28;20192;-54
2024/04/07 03:27:00;;;;;;;1.80;1.30;;;;;;;8.42;100.00;97905.72;6236088;28;20572;-53
2024/04/07 03:30:01;;;;;;;1.60;1.10;;;;;;;8.37;100.00;97907.41;6238142;28;20257;-56
2024/04/07 03:33:04;;;;;;;4.17;1.30;;;;;;;8.39;100.00;97910.66;6234073;28;20209;-54
2024/04/07 03:36:05;;;;;;;2.97;1.10;;;;;;;8.28;100.00;97905.03;6242953;28;20631;-55
2024/04/07 03:39:07;;;;;;;1.20;1.10;;;;;;;8.16;100.00;97909.44;6239440;28;20188;-57
2024/04/07 03:42:08;;;;;;;2.73;1.27;;;;;;;7.91;100.00;97893.56;6231009;28;20192;-57
2024/04/07 03:45:11;;;;;;;2.30;1.50;;;;;;;8.39;100.00;97903.50;6230221;28;20192;-55
2024/04/07 03:48:12;;;;;;;4.90;1.60;;;;;;;8.28;100.00;97896.28;6234650;28;20197;-56
2024/04/07 03:51:14;;;;;;;3.20;1.57;;;;;;;8.49;100.00;97898.50;6232014;28;20200;-55
2024/04/07 03:54:16;;;;;;;3.53;1.60;;;;;;;8.16;100.00;97900.66;6234191;28;20216;-55
2024/04/07 03:57:17;;;;;;;2.83;1.50;;;;;;;8.04;100.00;97903.25;6231811;28;20567;-55
2024/04/07 04:00:19;;;;;;;2.57;1.40;;;;;;;7.99;100.00;97903.09;6213284;28;20209;-56
2024/04/07 04:03:21;;;;;;;1.40;1.30;;;;;;;8.18;100.00;97901.28;6239631;28;20790;-55
2024/04/07 04:06:22;;;;;;;2.53;1.97;;;;;;;8.27;100.00;97905.25;6236024;28;20652;-54
2024/04/07 04:09:25;;;;;;;1.83;1.40;;;;;;;8.08;100.00;97903.59;6231075;28;20196;-56
2024/04/07 04:12:28;;;;;;;1.50;1.40;;;;;;;8.00;100.00;97910.84;6231217;28;20704;-54
2024/04/07 04:15:31;;;;;;;1.60;1.30;;;;;;;7.93;100.00;97907.44;6238227;28;20307;-55
2024/04/07 04:18:32;;;;;;;3.30;1.50;;;;;;;7.91;100.00;97911.34;6239515;28;20652;-55
2024/04/07 04:21:33;;;;;;;2.40;1.40;;;;;;;7.91;100.00;97912.16;6241961;28;20191;-56
2024/04/07 04:24:35;;;;;;;2.27;1.30;;;;;;;7.86;100.00;97919.94;6240253;28;20579;-57
2024/04/07 04:27:37;;;;;;;2.53;1.60;;;;;;;7.97;100.00;97929.84;6242083;28;20915;-57
2024/04/07 04:30:39;;;;;;;3.77;1.50;;;;;;;7.68;100.00;97906.63;6241397;28;20555;-55
2024/04/07 04:33:42;;;;;;;4.50;1.60;;;;;;;7.86;100.00;97935.84;6241645;28;20188;-55
2024/04/07 04:36:43;;;;;;;2.23;1.07;;;;;;;8.12;100.00;97939.28;6244249;28;20288;-57
2024/04/07 04:39:44;;;;;;;3.03;1.20;;;;;;;8.16;100.00;97935.97;6244062;28;20598;-55
2024/04/07 04:42:45;;;;;;;1.77;1.33;;;;;;;8.01;100.00;97940.81;6241591;28;20210;-56
2024/04/07 04:46:09;;;;;;;3.70;1.47;;;;;;;8.11;100.00;97942.97;6239649;28;20214;-55
2024/04/07 04:49:11;;;;;;;2.70;1.70;;;;;;;7.92;100.00;97944.78;6237984;28;20526;-55
2024/04/07 04:52:13;;;;;;;1.80;1.50;;;;;;;7.89;100.00;97948.69;6243248;28;20232;-57
2024/04/07 04:55:15;;;;;;;3.73;1.40;;;;;;;8.25;100.00;97955.09;6234152;28;20271;-53
2024/04/07 04:58:17;;;;;;;1.90;1.30;;;;;;;8.03;100.00;97949.41;6227389;28;20200;-52
2024/04/07 05:01:20;;;;;;;1.70;1.33;;;;;;;7.88;100.00;97930.31;6237238;28;20191;-57
2024/04/07 05:04:22;;;;;;;4.93;1.40;;;;;;;7.93;100.00;97941.94;6235594;28;20695;-56
2024/04/07 05:07:23;;;;;;;2.17;1.30;;;;;;;7.95;100.00;97945.16;6233924;28;20338;-56
2024/04/07 05:10:25;;;;;;;2.57;1.40;;;;;;;7.98;100.00;97954.53;6244341;28;20696;-53
2024/04/07 05:13:27;;;;;;;1.80;1.40;;;;;;;8.06;100.00;97956.91;6235332;28;20191;-54
2024/04/07 05:16:32;;;;;;;1.33;1.20;;;;;;;8.23;100.00;97933.28;6240641;28;20211;-55
2024/04/07 05:19:34;;;;;;;2.27;1.57;;;;;;;8.21;100.00;97951.25;6271827;28;20927;-55
2024/04/07 05:22:36;;;;;;;2.13;1.50;;;;;;;8.34;100.00;97956.44;6261232;28;20222;-56
2024/04/07 05:25:39;;;;;;;1.53;1.30;;;;;;;8.54;100.00;97945.63;6231107;28;20188;-57
2024/04/07 05:28:41;;;;;;;3.37;1.43;;;;;;;8.60;100.00;97959.84;6234836;28;20203;-56
2024/04/07 05:31:44;;;;;;;1.80;1.53;;;;;;;8.49;100.00;97946.28;6214292;28;20207;-57
2024/04/07 05:34:49;;;;;;;3.43;1.70;;;;;;;8.49;100.00;97935.66;6230757;28;20216;-53
2024/04/07 05:37:51;;;;;;;3.43;1.60;;;;;;;8.61;100.00;97950.84;6227075;28;20675;-54
2024/04/07 05:40:57;;;;;;;5.33;1.87;;;;;;;8.74;100.00;97924.94;6255144;28;20204;-55
2024/04/07 05:44:01;;;;;;;4.20;1.73;;;;;;;8.84;100.00;97953.63;6224675;28;20186;-54
2024/04/07 05:47:03;;;;;;;2.20;2.00;;;;;;;8.94;100.00;97961.06;6260717;28;20219;-57
2024/04/07 05:50:05;;;;;;;3.20;2.00;;;;;;;9.00;100.00;97966.28;6230119;28;20573;-57
2024/04/07 05:53:06;;;;;;;2.97;1.77;;;;;;;9.20;100.00;97959.91;6219993;28;20274;-57
2024/04/07 05:56:11;;;;;;;3.60;1.80;;;;;;;9.34;100.00;97963.19;6220872;28;20212;-55
2024/04/07 05:59:13;;;;;;;2.83;2.00;;;;;;;9.27;100.00;97950.81;6256923;28;20208;-57
2024/04/07 06:02:14;;;;;;;3.43;2.10;;;;;;;9.44;100.00;97968.75;6218679;28;20206;-55
2024/04/07 06:05:16;;;;;;;1.83;1.70;;;;;;;9.61;100.00;97967.09;6222742;28;20194;-55
2024/04/07 06:08:18;;;;;;;3.17;1.90;;;;;;;10.01;100.00;97971.75;6223890;28;20214;-56
2024/04/07 06:11:20;;;;;;;4.27;1.90;;;;;;;10.16;100.00;97965.97;6230438;28;20326;-56
2024/04/07 06:14:21;;;;;;;3.07;2.10;;;;;;;10.37;100.00;97957.41;6227367;28;20206;-56
2024/04/07 06:17:22;;;;;;;2.77;1.97;;;;;;;10.76;100.00;97969.16;6238753;28;20199;-55
2024/04/07 06:20:23;;;;;;;4.57;1.67;;;;;;;10.61;100.00;97970.72;6234047;28;20649;-55
2024/04/07 06:23:25;;;;;;;2.97;2.10;;;;;;;10.78;100.00;97955.59;6236932;28;20210;-56
2024/04/07 06:26:25;;;;;;;1.77;1.57;;;;;;;11.09;100.00;97973.81;6241945;28;20231;-56
2024/04/07 06:29:27;;;;;;;3.30;1.63;;;;;;;11.05;100.00;97953.19;6229490;28;20220;-57
2024/04/07 06:32:29;;;;;;;3.40;1.87;;;;;;;11.14;100.00;97973.13;6238807;28;20244;-55
2024/04/07 06:35:30;;;;;;;2.00;1.60;;;;;;;11.51;100.00;97976.16;6238657;28;20627;-55
2024/04/07 06:38:32;;;;;;;4.63;2.37;;;;;;;11.49;100.00;97969.47;6244680;28;20289;-55
2024/04/07 06:41:34;;;;;;;3.60;1.70;;;;;;;11.81;100.00;97954.53;6242925;28;20685;-56
2024/04/07 06:44:36;;;;;;;2.77;1.70;;;;;;;11.87;100.00;97976.78;6237758;28;20223;-55
2024/04/07 06:47:38;;;;;;;44.70;21.60;;;;;;;12.27;100.00;97967.81;6238939;28;20196;-57
2024/04/07 06:50:40;;;;;;;20.47;12.40;;;;;;;12.29;100.00;97971.84;6241415;28;20691;-53
2024/04/07 06:53:41;;;;;;;19.83;10.50;;;;;;;12.48;100.00;97975.03;6235396;28;20187;-56
2024/04/07 06:56:42;;;;;;;24.03;13.40;;;;;;;12.46;100.00;97965.66;6238114;28;20262;-56
2024/04/07 06:59:43;;;;;;;4.47;3.03;;;;;;;12.50;100.00;97962.22;6235855;28;20192;-56
2024/04/07 07:02:44;;;;;;;3.93;2.67;;;;;;;12.67;100.00;97967.53;6245745;28;20672;-54
2024/04/07 07:05:47;;;;;;;3.23;2.30;;;;;;;12.82;100.00;97966.94;6218072;28;20970;-56
2024/04/07 07:08:49;;;;;;;5.20;2.37;;;;;;;13.05;100.00;97969.34;6243683;28;20195;-52
2024/04/07 07:11:50;;;;;;;2.77;2.20;;;;;;;13.32;100.00;97977.41;6237157;28;20216;-56
2024/04/07 07:14:52;;;;;;;4.03;2.20;;;;;;;13.63;100.00;97973.16;6239300;28;20223;-56
2024/04/07 07:17:53;;;;;;;3.70;2.10;;;;;;;14.08;100.00;97979.16;6237775;28;20195;-49
2024/04/07 07:20:54;;;;;;;3.87;2.10;;;;;;;14.59;100.00;97980.31;6232919;28;20611;-54
2024/04/07 07:23:55;;;;;;;2.37;1.93;;;;;;;14.97;100.00;97981.00;6236274;28;20558;-54
2024/04/07 07:26:56;;;;;;;3.33;2.20;;;;;;;15.32;100.00;97995.63;6219154;28;20668;-55
2024/04/07 07:29:58;;;;;;;4.23;2.80;;;;;;;15.52;100.00;97984.13;6236043;28;20199;-54
2024/04/07 07:33:01;;;;;;;3.30;2.17;;;;;;;15.92;99.63;97992.25;6222595;28;20187;-57
2024/04/07 07:36:03;;;;;;;3.20;2.30;;;;;;;16.27;98.39;97996.00;6231534;28;20570;-54
2024/04/07 07:39:05;;;;;;;2.53;2.20;;;;;;;16.54;95.91;97998.38;6232269;28;20246;-57
2024/04/07 07:42:06;;;;;;;3.30;2.10;;;;;;;16.73;92.70;97985.19;6231342;28;20196;-53
2024/04/07 07:45:09;;;;;;;2.70;1.87;;;;;;;17.03;93.70;97995.81;6238917;28;20642;-55
2024/04/07 07:48:10;;;;;;;2.23;2.00;;;;;;;17.31;91.72;97998.13;6245439;28;20200;-55
2024/04/07 07:51:12;;;;;;;2.37;1.83;;;;;;;17.67;85.29;97993.34;6230904;28;20210;-55
2024/04/07 07:54:13;;;;;;;2.07;1.87;;;;;;;17.72;82.51;97986.00;6230942;28;20196;-54
2024/04/07 07:57:14;;;;;;;3.37;1.83;;;;;;;17.98;80.62;97991.25;6221739;28;20192;-54
2024/04/07 08:00:16;;;;;;;3.47;1.87;;;;;;;18.12;82.31;97994.91;6232718;28;20200;-55
2024/04/07 08:03:17;;;;;;;3.20;2.17;;;;;;;18.42;81.57;97998.41;6230760;28;20204;-56
2024/04/07 08:06:19;;;;;;;3.87;2.30;;;;;;;18.57;82.91;97990.19;6232086;28;20452;-54
2024/04/07 08:09:23;;;;;;;4.50;3.00;;;;;;;19.16;69.46;97994.41;6227820;28;20196;-55
2024/04/07 08:12:25;;;;;;;4.43;2.37;;;;;;;19.37;72.46;97980.63;6226918;28;20746;-56
2024/04/07 08:15:26;;;;;;;3.03;2.23;;;;;;;19.57;69.58;97983.81;6235259;28;20216;-56
2024/04/07 08:18:30;;;;;;;3.63;2.40;;;;;;;19.72;72.49;97979.31;6231965;28;20227;-54
2024/04/07 08:21:31;;;;;;;2.87;2.27;;;;;;;19.90;72.96;97988.47;6223786;28;20208;-56
2024/04/07 08:24:32;;;;;;;3.10;2.40;;;;;;;19.99;66.91;97978.59;6229620;28;20672;-54
2024/04/07 08:27:33;;;;;;;3.07;2.27;;;;;;;20.19;66.76;97972.06;6228863;28;20191;-56
2024/04/07 08:30:35;;;;;;;4.07;2.37;;;;;;;20.35;69.03;97968.00;6228683;28;20210;-57
2024/04/07 08:33:36;;;;;;;2.40;2.20;;;;;;;20.48;69.39;97972.63;6230899;28;20196;-54
2024/04/07 08:36:38;;;;;;;3.03;2.23;;;;;;;20.55;70.53;97956.03;6239333;28;20296;-53
2024/04/07 08:39:40;;;;;;;2.53;2.07;;;;;;;20.85;67.52;97973.56;6229875;28;20192;-51
2024/04/07 08:42:43;;;;;;;2.60;2.30;;;;;;;20.95;68.13;97972.56;6230581;28;20676;-52
2024/04/07 08:45:47;;;;;;;3.73;2.20;;;;;;;21.06;56.81;97968.53;6229621;28;20291;-54
2024/04/07 08:48:51;;;;;;;4.67;2.40;;;;;;;21.34;55.35;97978.28;6235031;28;20605;-52
2024/04/07 08:51:53;;;;;;;2.87;2.23;;;;;;;21.62;61.36;97986.31;6220452;28;20738;-54
2024/04/07 08:54:55;;;;;;;3.33;2.47;;;;;;;21.66;58.82;97989.22;6229829;28;20223;-50
2024/04/07 08:57:57;;;;;;;3.77;2.23;;;;;;;21.95;59.38;97992.31;6227253;28;20184;-54
2024/04/07 09:01:01;;;;;;;2.03;1.87;;;;;;;22.19;60.00;97989.31;6210942;28;20216;-52
2024/04/07 09:04:02;;;;;;;7.43;2.33;;;;;;;22.50;57.23;97992.03;6229644;28;20188;-55
2024/04/07 09:07:04;;;;;;;6.70;2.50;;;;;;;22.61;52.09;97990.69;6227540;28;20195;-53
2024/04/07 09:10:05;;;;;;;3.70;2.30;;;;;;;22.71;49.58;97992.31;6221502;28;20189;-53
2024/04/07 09:13:07;;;;;;;7.23;2.47;;;;;;;22.64;50.17;97987.31;6230555;28;20206;-55
2024/04/07 09:16:09;;;;;;;4.47;2.30;;;;;;;22.71;50.24;97986.06;6239172;28;20208;-54
2024/04/07 09:19:11;;;;;;;5.20;2.63;;;;;;;22.69;52.40;97994.53;6230831;28;20243;-52
2024/04/07 09:22:12;;;;;;;2.40;1.97;;;;;;;22.85;51.43;97986.75;6228168;28;20192;-50
2024/04/07 09:25:14;;;;;;;3.10;2.57;;;;;;;22.97;51.28;97992.44;6226154;28;20215;-53
2024/04/07 09:28:15;;;;;;;3.97;2.22;;;;;;;23.17;51.44;97993.78;6231397;28;20204;-53
2024/04/07 09:31:19;;;;;;;4.50;2.58;;;;;;;23.17;51.57;97988.34;6225703;28;20242;-54
2024/04/07 09:34:20;;;;;;;2.70;2.45;;;;;;;23.29;48.23;97999.38;6233537;28;20617;-52
2024/04/07 09:37:22;;;;;;;3.58;2.40;;;;;;;23.25;48.36;98008.50;6228816;28;20568;-53
2024/04/07 09:40:25;;;;;;;3.88;2.50;;;;;;;23.06;48.96;98006.88;6229785;28;20195;-52
2024/04/07 09:43:31;;;;;;;3.72;2.33;;;;;;;22.97;48.54;97995.16;6236816;28;20197;-53
2024/04/07 09:46:40;;;;;;;4.90;2.50;;;;;;;23.08;51.55;98001.09;6234414;28;20768;-53
2024/04/07 09:49:42;;;;;;;3.58;2.28;;;;;;;23.23;50.39;97989.78;6222336;28;20653;-52
2024/04/07 09:52:51;;;;;;;5.75;2.30;;;;;;;23.30;49.67;97990.13;6217531;28;20184;-52
2024/04/07 09:55:57;;;;;;;2.30;2.10;;;;;;;23.46;48.80;97987.75;6221523;28;20243;-54
2024/04/07 09:59:01;;;;;;;3.17;2.20;;;;;;;23.61;50.02;97981.84;6217307;28;20200;-53
2024/04/07 10:02:04;;;;;;;3.78;2.17;;;;;;;23.74;47.76;97971.13;6228091;28;20197;-53
2024/04/07 10:05:06;;;;;;;3.28;2.28;;;;;;;23.54;47.72;97972.53;6224174;28;20197;-54
2024/04/07 10:08:08;;;;;;;5.65;2.85;;;;;;;23.58;46.27;97977.03;6235784;28;20226;-55
2024/04/07 10:11:20;;;;;;;3.30;2.63;;;;;;;23.58;48.70;97987.91;6234152;28;20283;-53
2024/04/07 10:14:22;;;;;;;3.17;2.17;;;;;;;23.56;48.93;97970.31;6229645;28;20212;-54
2024/04/07 10:17:23;;;;;;;4.18;2.15;;;;;;;23.83;46.64;97975.47;6229575;28;20196;-52
2024/04/07 10:20:27;;;;;;;4.25;2.30;;;;;;;23.90;47.02;97967.63;6233405;28;20227;-52
2024/04/07 10:23:28;;;;;;;3.33;2.40;;;;;;;23.86;47.13;97969.38;6233328;28;20184;-53
2024/04/07 10:26:29;;;;;;;6.35;2.47;;;;;;;23.83;48.90;97977.38;6232937;28;20242;-48
2024/04/07 10:29:33;;;;;;;5.10;2.80;;;;;;;23.86;46.96;97977.53;6226981;28;21077;-52
2024/04/07 10:32:36;;;;;;;3.50;2.67;;;;;;;23.77;47.81;97965.88;6232395;28;20221;-53
2024/04/07 10:35:52;;;;;;;5.10;2.53;;;;;;;24.02;46.67;97980.56;6232200;28;20291;-55
2024/04/07 10:38:57;;;;;;;3.65;2.45;;;;;;;24.15;47.71;97970.63;6233258;28;20276;-53
2024/04/07 10:41:58;;;;;;;3.33;2.22;;;;;;;24.37;46.83;97973.16;6228253;28;20591;-53
2024/04/07 10:45:04;;;;;;;2.40;2.03;;;;;;;24.43;45.81;97977.31;6229242;28;20238;-52
2024/04/07 10:48:09;;;;;;;3.13;2.15;;;;;;;24.52;47.61;97980.00;6237965;28;20200;-54
2024/04/07 10:51:15;;;;;;;3.33;2.70;;;;;;;24.49;46.32;97971.69;6226666;28;20677;-54
2024/04/07 10:54:17;;;;;;;3.47;2.10;;;;;;;24.59;48.23;97974.88;6227192;28;20212;-44
2024/04/07 10:57:18;;;;;;;4.22;2.28;;;;;;;24.66;45.98;97980.59;6228856;28;20284;-48
2024/04/07 11:00:19;;;;;;;2.70;2.25;;;;;;;24.52;45.55;97985.44;6215217;28;20658;-42
2024/04/07 11:03:22;;;;;;;2.72;2.13;;;;;;;24.44;45.73;97970.75;6225497;28;20295;-44
2024/04/07 11:06:24;;;;;;;5.78;2.60;;;;;;;24.65;46.75;97972.75;6228253;28;20535;-43
2024/04/07 11:09:27;;;;;;;4.32;2.25;;;;;;;24.56;46.26;97975.50;6236916;28;20725;-45
2024/04/07 11:12:28;;;;;;;2.78;2.22;;;;;;;24.62;45.76;97978.84;6236583;28;20660;-43
2024/04/07 11:15:30;;;;;;;3.75;2.65;;;;;;;24.40;46.83;97958.91;6241607;28;20212;-45
2024/04/07 11:18:32;;;;;;;3.88;2.40;;;;;;;24.35;47.63;97950.88;6239502;28;20289;-44
2024/04/07 11:21:33;;;;;;;3.22;2.50;;;;;;;24.58;46.86;97975.16;6244835;28;20673;-45
2024/04/07 11:24:34;;;;;;;3.47;2.10;;;;;;;24.17;46.65;97913.94;6234864;28;20184;-50
2024/04/07 11:27:35;;;;;;;2.78;2.15;;;;;;;24.73;47.95;97974.66;6227357;28;20204;-56
2024/04/07 11:30:39;;;;;;;4.93;2.33;;;;;;;24.99;47.85;97966.34;6243023;28;20305;-56
2024/04/07 11:33:41;;;;;;;4.13;2.22;;;;;;;25.11;45.99;97968.38;6245194;28;20687;-66
2024/04/07 11:36:47;;;;;;;4.47;2.33;;;;;;;25.02;46.69;97965.66;6237568;28;20208;-64
2024/04/07 11:39:52;;;;;;;4.05;2.47;;;;;;;24.96;45.67;97958.81;6244645;28;20452;-67
2024/04/07 11:42:53;;;;;;;8.68;2.10;;;;;;;25.13;44.88;97955.25;6239266;28;20575;-65
2024/04/07 11:45:54;;;;;;;5.75;2.30;;;;;;;25.26;45.10;97959.63;6243680;28;20194;-67
2024/04/07 11:48:55;;;;;;;2.97;2.10;;;;;;;25.23;43.89;97943.94;6238386;28;20218;-66
2024/04/07 11:51:56;;;;;;;4.13;1.90;;;;;;;25.35;43.50;97960.38;6222317;28;20199;-66
2024/04/07 11:54:57;;;;;;;5.25;2.28;;;;;;;25.30;43.50;97952.38;6233574;28;20334;-65
2024/04/07 11:57:58;;;;;;;3.67;1.80;;;;;;;25.24;43.67;97951.00;6241940;28;20229;-65
2024/04/07 12:01:01;;;;;;;4.90;2.20;;;;;;;25.53;43.31;97952.06;6239309;28;20199;-62
2024/04/07 12:04:02;;;;;;;3.22;1.75;;;;;;;25.62;42.95;97955.53;6237045;28;20175;-64
2024/04/07 12:07:04;;;;;;;1.90;1.80;;;;;;;25.56;43.50;97956.84;6277742;28;20697;-63
2024/04/07 12:10:05;;;;;;;4.20;2.15;;;;;;;25.45;43.40;97961.91;6232896;28;20193;-65
2024/04/07 12:13:06;;;;;;;4.00;1.50;;;;;;;25.55;43.21;97960.72;6243064;28;20260;-62
2024/04/07 12:16:10;;;;;;;3.72;2.00;;;;;;;25.56;43.09;97963.09;6273561;28;20222;-63
2024/04/07 12:19:13;;;;;;;2.58;1.92;;;;;;;25.58;42.90;97960.06;6241521;28;20660;-63
2024/04/07 12:22:19;;;;;;;3.42;2.17;;;;;;;25.52;43.53;97942.25;6243880;28;20651;-62
2024/04/07 12:25:23;;;;;;;4.50;1.83;;;;;;;25.50;44.55;97941.81;6238335;28;20203;-63
2024/04/07 12:28:24;;;;;;;3.75;2.20;;;;;;;25.42;42.69;97949.75;6238520;28;20233;-64
2024/04/07 12:31:25;;;;;;;2.00;1.50;;;;;;;25.53;43.91;97954.81;6245832;28;20191;-62
2024/04/07 12:34:26;;;;;;;4.15;2.28;;;;;;;25.33;44.09;97965.38;6242909;28;20602;-64
2024/04/07 12:37:27;;;;;;;3.00;1.83;;;;;;;25.30;44.57;97962.50;6232164;28;20187;-62
2024/04/07 12:40:29;;;;;;;4.85;2.45;;;;;;;25.38;45.46;97957.00;6239550;28;20195;-62
2024/04/07 12:43:30;;;;;;;3.67;1.98;;;;;;;25.50;45.15;97956.25;6240967;28;20191;-63
2024/04/07 12:46:31;;;;;;;3.50;2.00;;;;;;;25.40;45.29;97945.75;6237399;28;20223;-62
2024/04/07 12:49:32;;;;;;;2.92;2.10;;;;;;;25.22;43.45;97947.78;6233728;28;20200;-61
2024/04/07 12:52:35;;;;;;;4.38;2.10;;;;;;;25.21;44.26;97948.91;6235571;28;20303;-62
2024/04/07 12:55:36;;;;;;;4.93;2.35;;;;;;;25.32;43.70;97950.13;6238542;28;20592;-61
2024/04/07 12:58:37;;;;;;;3.20;1.92;;;;;;;25.32;43.47;97955.59;6248453;28;20544;-62
2024/04/07 13:01:38;;;;;;;2.83;2.00;;;;;;;25.29;43.90;97950.00;6231329;28;20199;-59
2024/04/07 13:04:39;;;;;;;2.75;1.77;;;;;;;25.37;43.17;97955.41;6242108;28;20199;-61
2024/04/07 13:07:40;;;;;;;2.70;2.13;;;;;;;25.41;42.60;97950.06;6237392;28;20202;-62
2024/04/07 13:10:42;;;;;;;5.88;2.10;;;;;;;25.34;43.80;97939.69;6276327;28;20187;-62
2024/04/07 13:13:43;;;;;;;3.55;2.05;;;;;;;25.38;43.69;97948.81;6233911;28;20197;-62
2024/04/07 13:16:44;;;;;;;3.47;1.73;;;;;;;25.51;41.68;97943.41;6240104;28;20315;-61
2024/04/07 13:19:45;;;;;;;2.63;1.98;;;;;;;25.68;41.64;97937.81;6239763;28;20298;-61
2024/04/07 13:22:47;;;;;;;2.97;1.90;;;;;;;25.76;41.70;97939.69;6242246;28;20215;-61
2024/04/07 13:25:48;;;;;;;1.90;1.70;;;;;;;25.66;40.98;97940.84;6237158;28;20219;-61
2024/04/07 13:28:49;;;;;;;3.45;1.88;;;;;;;25.71;40.46;97956.22;6245924;28;20226;-60
2024/04/07 13:31:50;;;;;;;3.17;2.05;;;;;;;25.79;39.69;97947.22;6240296;28;20236;-60
2024/04/07 13:34:52;;;;;;;2.30;1.70;;;;;;;25.62;40.68;97947.34;6236741;28;20207;-61
2024/04/07 13:37:53;;;;;;;1.90;1.70;;;;;;;25.74;40.58;97936.47;6245719;28;20679;-61
2024/04/07 13:40:55;;;;;;;3.00;1.90;;;;;;;25.71;41.33;97926.22;6247601;28;20184;-60
2024/04/07 13:43:57;;;;;;;4.40;1.67;;;;;;;25.62;40.76;97939.97;6232552;28;20202;-60
2024/04/07 13:46:58;;;;;;;3.40;1.70;;;;;;;25.73;40.11;97929.44;6237042;28;20191;-59
2024/04/07 13:49:59;;;;;;;1.58;1.48;;;;;;;25.53;40.33;97933.78;6235876;28;20200;-60
2024/04/07 13:53:03;;;;;;;4.53;1.70;;;;;;;25.45;41.95;97938.16;6235127;28;20218;-60
2024/04/07 13:56:05;;;;;;;4.57;1.85;;;;;;;25.58;40.22;97924.59;6242596;28;20211;-60
2024/04/07 13:59:06;;;;;;;2.08;1.70;;;;;;;25.59;40.47;97915.25;6237272;28;20203;-60
2024/04/07 14:02:07;;;;;;;2.38;1.70;;;;;;;25.40;41.93;97921.19;6232966;28;20558;-60
2024/04/07 14:05:08;;;;;;;2.25;1.45;;;;;;;25.38;43.42;97924.25;6236897;28;20210;-60
2024/04/07 14:08:10;;;;;;;3.75;1.75;;;;;;;25.35;41.36;97919.47;6232828;28;20202;-60
2024/04/07 14:11:11;;;;;;;3.00;1.75;;;;;;;25.33;41.19;97924.47;6235500;28;20225;-60
2024/04/07 14:14:13;;;;;;;1.58;1.25;;;;;;;25.19;40.78;97916.53;6218051;28;20238;-59
2024/04/07 14:17:14;;;;;;;3.00;1.60;;;;;;;25.23;39.62;97924.84;6244455;28;20195;-59